Okinawa, Japan
Current Conditions -  °F | °C
As of 2:30 AM on Tuesday 25 Nov 2014 (Local Time) from ROAH Reporting Station
Few Clouds Few Clouds  
Wind Chill: 72°   Ceiling: Unl
Heat Index: 72°   Visibility: 6mi
Dew Point: 66°   Wind: 5mph
Humidity: 83%   Direction: 150°SSE
Pressure: 29.94"   Gusts: NA
Location:  26.23°N, 127.68°E
Report Text: ROAH 241730Z 15004KT 9999 FEW018 22/19 Q1014
Loading
Personal Weather Stations






























Interactive Weather Map New forecast layout! Learn more

10-Day Weather Forecast

Advertisements
Track Severe Weather on mobile